X  Κλείσε Στοιχεία αεροπορικών μετεωρολογικών δεδομένων METAR        KSPW Spencer, IA
θερμοκρασία
41°F θερμοκρασία
37°F Σημείο δρόσου
86% Υγρασία



Ανεμος
15 MPH
24 KM/H
7 M/S
13 KTS



30°
VVA
Τρέχουσες συνθήκες

Cloudy Συννεφιασμένος
πίεση 1016 (hPa) - 30.01 (inHg)
Ορατότητα 0 (μίλι) - 0 (km)
Aεροδρόμιο
Κωδικός αεροδρομίου KSPW

Τοποθεσία: Spencer, IA
Απόσταση: 17 (mi)

Metar:
METAR KSPW 090553Z AUTO 03013KT OVC075 05/03 A2999 RMK AO2 SLP164 60012 T00500028 10056 20044 401110022 56002 $

ώρα: 05-09-2021 12:53 am CDT